• Join FlightAware (Why Join?)
  • Login
  • US Flag 
02:12PM EDT


 

Airport Tracker/Info


-or-


 

Live Flight TrackerFlight Track Log ✈ RPA3161 ✈ 16-Jun-2013 ✈ KBTV - KDCA

Flight Track Log - Related Links

Times and Time Zones

All times are in EDT time to prevent confusion due to time zone crossing. See the RPA3161 flight status page for this flight to view local times or setup timezone preferences in your user account.

Time Position Orientation Groundspeed Altitude Reporting Facility
EDT Latitude Longitude Course Direction KTS MPH feet Rate Location/Type
12:24PM 44.4364 -73.1319 195° South 157 181 2,200  Level Boston Center
12:25PM 44.3844 -73.1169 168° South 180 207 4,300 2,700 Climbing Boston Center
12:26PM 44.3158 -73.0986 169° South 238 274 7,600 3,300 Climbing Boston Center
12:27PM 44.0583 -73.3028 194° South  Level FlightAware Approximate
12:27PM 44.2428 -73.1067 185° South 262 302 10,900  Level Boston Center
12:28PM 43.9550 -73.3372 194° South  Level FlightAware Approximate
12:28PM 44.1739 -73.1406 199° South 267 307 13,900  Level Boston Center
12:29PM 43.8523 -73.3742 195° South  Level FlightAware Approximate
12:29PM 44.0944 -73.1656 193° South 281 323 16,100  Level Boston Center
12:30PM 43.7498 -73.4127 195° South  Level FlightAware Approximate
12:30PM 44.0114 -73.1156 157° South 321 369 18,000  Level Boston Center
12:31PM 43.9181 -73.0656 159° South 358 412 20,000 1,800 Climbing Boston Center
12:32PM 43.8139 -73.0356 168° South 381 438 21,700 1,800 Climbing Boston Center
12:33PM 43.7136 -73.0575 189° South 370 426 23,700 1,800 Climbing Boston Center
12:34PM 43.6094 -73.0767 188° South 370 426 25,400 1,500 Climbing Boston Center
12:35PM 43.5031 -73.1042 191° South 383 441 26,800 1,260 Climbing Boston Center
12:36PM 43.3861 -73.1314 190° South 389 448 28,000 600 Climbing Boston Center
12:37PM 43.2775 -73.1558 189° South 394 453 28,000  Level Boston Center
12:38PM 43.1650 -73.1803 189° South 401 461 28,000  Level Boston Center
12:39PM 43.0544 -73.2044 189° South 407 468 28,000  Level Boston Center
12:40PM 42.9436 -73.2286 189° South 407 468 28,000  Level Boston Center
12:41PM 42.8100 -73.2581 189° South 407 468 28,000  Level Boston Center
12:43PM 42.6764 -73.2900 190° South 413 475 28,000  Level Boston Center
12:44PM 42.5764 -73.2972 183° South 407 468 28,000  Level Boston Center
12:45PM 42.4678 -73.3239 190° South 407 468 28,000  Level Boston Center
12:46PM 42.3656 -73.3561 193° South 414 476 28,000  Level Boston Center
12:47PM 42.2464 -73.3769 187° South 408 470 28,000  Level Boston Center
12:48PM 42.1336 -73.4003 189° South 408 470 28,000  Level Boston Center
12:49PM 42.0189 -73.4294 191° South 413 475 28,000  Level Boston Center
12:50PM 41.9081 -73.4556 190° South 413 475 28,000  Level Boston Center
12:51PM 41.8136 -73.5236 208° Southwest 386 444 28,000  Level Boston Center
12:53PM 41.5997 -73.7089 213° Southwest 385 443 28,000  Level New York Center
12:54PM 41.5125 -73.7825 212° Southwest 385 443 28,000  Level New York Center
12:55PM 41.4231 -73.8617 214° Southwest 380 437 28,000  Level New York Center
12:56PM 41.3358 -73.9375 213° Southwest 380 437 28,000  Level New York Center
12:57PM 41.2461 -74.0133 212° Southwest 380 437 28,000  Level New York Center
12:58PM 41.1567 -74.0917 213° Southwest 380 437 28,000  Level New York Center
12:59PM 41.0669 -74.1700 213° Southwest 385 443 28,000  Level New York Center
01:00PM 40.9731 -74.2394 209° Southwest 385 443 28,000  Level New York Center
01:01PM 40.8856 -74.3172 214° Southwest 390 449 28,000  Level New York Center
01:02PM 40.7956 -74.3975 214° Southwest 390 449 28,000  Level New York Center
01:03PM 40.7300 -74.4981 229° Southwest 385 443 28,000  Level New York Center
01:04PM 40.6681 -74.6042 232° Southwest 371 427 28,000 -420 Level New York Center
01:05PM 40.6022 -74.7069 230° Southwest 371 427 27,200 -1,380 Descending New York Center
01:06PM 40.5342 -74.8097 229° Southwest 396 456 25,300 -1,920 Descending New York Center
01:07PM 40.4617 -74.9172 228° Southwest 407 468 23,400 -1,680 Descending New York Center
01:08PM 40.3892 -75.0192 227° Southwest 401 461 22,000 -720 Descending New York Center
01:09PM 40.3214 -75.1103 226° Southwest 378 435 22,000  Level New York Center
01:10PM 40.2553 -75.2067 228° Southwest 365 420 22,000  Level New York Center
01:11PM 40.1892 -75.3003 227° Southwest 360 414 22,000  Level New York Center
01:12PM 40.1208 -75.3936 226° Southwest 360 414 22,000  Level New York Center
01:13PM 40.0525 -75.4867 226° Southwest 360 414 22,000  Level New York Center
01:14PM 39.9861 -75.5825 228° Southwest 360 414 22,000  Level New York Center
01:15PM 39.9197 -75.6781 228° Southwest 360 414 22,000 -240 Level New York Center
01:16PM 39.8633 -75.7822 235° Southwest 360 414 21,600 -840 Descending New York Center
01:17PM 39.8086 -75.8864 236° Southwest 360 414 20,400 -1,380 Descending New York Center
01:18PM 39.7497 -75.9956 235° Southwest 355 409 18,900 -1,500 Descending New York Center
01:19PM 39.6992 -76.0972 237° Southwest 342 394 17,400 -1,380 Descending New York Center
01:20PM 39.6631 -76.2050 247° West 327 376 16,200 -1,380 Descending New York Center
01:21PM 39.6167 -76.3333 245° Southwest 313 360 14,400 -1,140 Descending Potomac TRACON
01:22PM 39.5833 -76.4167 243° Southwest 312 359 13,900 -780 Descending Potomac TRACON
01:23PM 39.5167 -76.5000 224° Southwest 325 374 13,000 -960 Descending Potomac TRACON
01:24PM 39.4333 -76.5333 197° South 330 380 12,000 -1,020 Descending Potomac TRACON
01:25PM 39.3500 -76.5833 205° Southwest 299 344 11,000 -1,080 Descending Potomac TRACON
01:26PM 39.2833 -76.6000 191° South 291 335 10,000 -540 Descending Potomac TRACON
01:27PM 39.2167 -76.6500 210° Southwest 291 335 10,000  Level Potomac TRACON
01:28PM 39.1500 -76.6833 201° Southwest 236 272 10,000 -240 Level Potomac TRACON
01:29PM 39.1000 -76.7500 226° Southwest 232 267 9,600 -900 Descending Potomac TRACON
01:30PM 39.0500 -76.8000 218° Southwest 229 264 8,200 -1,380 Descending Potomac TRACON
01:31PM 39.0333 -76.8667 252° West 211 243 6,900 -1,320 Descending Potomac TRACON
01:32PM 39.0333 -76.9333 270° West 211 243 5,700 -1,440 Descending Potomac TRACON
01:33PM 39.0167 -77.0000 252° West 205 236 4,200 -1,260 Descending Potomac TRACON
01:34PM 39.0000 -77.0667 252° West 192 221 3,400 -900 Descending Potomac TRACON